createdAt,value
2022-10-31T00:01:40.708Z,88.81
2022-10-31T00:04:08.721Z,88.80
2022-10-31T00:06:36.656Z,88.84
2022-10-31T00:09:07.193Z,88.80
2022-10-31T00:11:36.490Z,89.01
2022-10-31T00:14:06.369Z,89.12
2022-10-31T00:16:34.054Z,89.12
2022-10-31T00:19:07.214Z,88.89
2022-10-31T00:21:37.717Z,88.50
2022-10-31T00:24:07.306Z,88.53
2022-10-31T00:26:36.496Z,88.74
2022-10-31T00:29:05.808Z,88.79
2022-10-31T00:31:35.233Z,88.77
2022-10-31T00:34:04.305Z,88.83
2022-10-31T00:36:32.204Z,88.86
2022-10-31T00:39:02.387Z,88.78
2022-10-31T00:41:32.235Z,88.69
2022-10-31T00:44:00.089Z,88.72
2022-10-31T00:46:28.069Z,88.78
2022-10-31T00:48:55.725Z,88.78
2022-10-31T00:51:23.360Z,88.73
2022-10-31T00:53:52.517Z,88.84
2022-10-31T00:56:20.393Z,88.79
2022-10-31T00:58:48.364Z,88.79
2022-10-31T01:01:16.175Z,88.77
2022-10-31T01:03:45.630Z,88.80
2022-10-31T01:06:15.607Z,88.79
2022-10-31T01:08:47.830Z,88.84
2022-10-31T01:11:20.468Z,88.82
2022-10-31T01:13:54.972Z,88.76
2022-10-31T01:16:26.619Z,88.69
2022-10-31T01:18:54.423Z,88.68
2022-10-31T01:21:29.750Z,88.65
2022-10-31T01:23:59.151Z,88.65
2022-10-31T01:26:33.030Z,88.67
2022-10-31T01:29:06.883Z,88.68
2022-10-31T01:31:40.049Z,88.67
2022-10-31T01:34:13.585Z,88.65
2022-10-31T01:36:43.096Z,88.68
2022-10-31T01:39:14.488Z,88.66
2022-10-31T01:41:48.780Z,88.64
2022-10-31T01:44:16.390Z,88.62
2022-10-31T01:46:49.408Z,88.58
2022-10-31T01:50:01.099Z,88.59
2022-10-31T01:52:38.291Z,88.60
2022-10-31T01:55:15.031Z,88.61
2022-10-31T01:57:48.346Z,88.60
2022-10-31T02:00:16.424Z,88.60
2022-10-31T02:02:47.168Z,88.59
2022-10-31T02:05:19.940Z,88.56
2022-10-31T02:08:06.544Z,88.55
2022-10-31T02:10:37.264Z,88.55
2022-10-31T02:13:08.431Z,88.56
2022-10-31T02:15:38.848Z,88.57
2022-10-31T02:18:09.369Z,88.58
2022-10-31T02:20:50.447Z,88.57
2022-10-31T02:23:33.782Z,88.55
2022-10-31T02:26:45.990Z,88.54
2022-10-31T02:29:48.068Z,88.57
2022-10-31T02:32:39.778Z,88.53
2022-10-31T02:35:29.558Z,88.53
2022-10-31T02:38:19.746Z,88.48
2022-10-31T02:40:55.822Z,88.49
2022-10-31T02:43:54.867Z,88.49
2022-10-31T02:46:38.465Z,88.38
2022-10-31T02:49:21.119Z,88.36
2022-10-31T02:51:51.273Z,88.30
2022-10-31T02:54:29.076Z,88.38
2022-10-31T02:57:06.565Z,88.48
2022-10-31T02:59:40.660Z,88.62
2022-10-31T03:02:31.419Z,88.66
2022-10-31T03:05:20.643Z,88.72
2022-10-31T03:08:19.842Z,88.82
2022-10-31T03:11:01.738Z,88.88
2022-10-31T03:13:59.301Z,88.87
2022-10-31T03:16:35.942Z,88.93
2022-10-31T03:19:10.330Z,88.97
2022-10-31T03:21:51.217Z,89.01
2022-10-31T03:24:23.564Z,89.07
2022-10-31T03:26:56.319Z,89.09
2022-10-31T03:29:29.667Z,89.06
2022-10-31T03:32:03.216Z,89.04
2022-10-31T03:34:33.125Z,89.01
2022-10-31T03:37:06.522Z,89.00
2022-10-31T03:39:37.401Z,88.97
2022-10-31T03:42:16.693Z,88.92
2022-10-31T03:44:55.222Z,88.90
2022-10-31T03:47:24.943Z,88.85
2022-10-31T03:49:56.132Z,88.85
2022-10-31T03:52:53.501Z,88.88
2022-10-31T03:55:35.350Z,88.89
2022-10-31T03:58:29.908Z,88.89
2022-10-31T04:01:00.639Z,88.85
2022-10-31T04:03:34.606Z,88.85
2022-10-31T04:06:08.756Z,88.87
2022-10-31T04:08:46.537Z,88.85
2022-10-31T04:11:20.408Z,88.86
2022-10-31T04:13:51.125Z,88.88
2022-10-31T04:16:21.734Z,88.89
2022-10-31T04:18:49.667Z,88.92
2022-10-31T04:21:19.341Z,88.89
2022-10-31T04:23:48.568Z,88.91
2022-10-31T04:26:16.417Z,88.86
2022-10-31T04:28:44.242Z,88.90
2022-10-31T04:31:15.023Z,88.92
2022-10-31T04:33:42.681Z,88.94
2022-10-31T04:36:12.163Z,88.92
2022-10-31T04:38:40.119Z,88.93
2022-10-31T04:41:07.861Z,88.94
2022-10-31T04:43:35.741Z,88.95
2022-10-31T04:46:04.415Z,88.90
2022-10-31T04:48:32.281Z,88.97
2022-10-31T04:51:04.347Z,88.99
2022-10-31T04:53:32.625Z,88.97
2022-10-31T04:56:03.149Z,88.94
2022-10-31T04:58:30.830Z,88.89
2022-10-31T05:00:58.580Z,88.87
2022-10-31T05:03:26.506Z,88.94
2022-10-31T05:05:54.401Z,89.00
2022-10-31T05:08:26.158Z,88.89
2022-10-31T05:10:56.599Z,88.82
2022-10-31T05:13:26.039Z,88.87
2022-10-31T05:15:53.944Z,88.83
2022-10-31T05:18:23.594Z,88.91
2022-10-31T05:20:51.533Z,89.11
2022-10-31T05:23:19.404Z,89.16
2022-10-31T05:25:47.225Z,89.17
2022-10-31T05:28:15.176Z,89.27
2022-10-31T05:30:42.935Z,89.28
2022-10-31T05:33:10.575Z,89.30
2022-10-31T05:35:38.415Z,89.24
2022-10-31T05:38:07.948Z,89.34
2022-10-31T05:40:35.860Z,89.35
2022-10-31T05:43:03.963Z,89.33
2022-10-31T05:45:32.932Z,89.42
2022-10-31T05:48:04.323Z,89.51
2022-10-31T05:50:33.848Z,89.47
2022-10-31T05:53:05.940Z,89.42
2022-10-31T05:55:35.509Z,89.43
2022-10-31T05:58:03.586Z,89.46
2022-10-31T06:00:36.105Z,89.49
2022-10-31T06:05:37.674Z,89.44
2022-10-31T06:08:07.207Z,89.46
2022-10-31T06:10:35.084Z,89.45
2022-10-31T06:13:02.739Z,89.40
2022-10-31T06:15:30.437Z,89.33
2022-10-31T06:18:00.835Z,89.27
2022-10-31T06:20:30.892Z,89.23
2022-10-31T06:22:58.988Z,89.19
2022-10-31T06:25:30.262Z,89.14
2022-10-31T06:27:59.662Z,89.08
2022-10-31T06:30:28.351Z,89.02
2022-10-31T06:33:03.055Z,88.95
2022-10-31T06:35:34.228Z,88.89
2022-10-31T06:38:03.925Z,88.83
2022-10-31T06:40:33.480Z,88.75
2022-10-31T06:43:03.348Z,88.65
2022-10-31T06:45:31.098Z,88.56
2022-10-31T06:50:49.789Z,88.38
2022-10-31T06:53:19.484Z,88.29
2022-10-31T06:55:47.366Z,88.21
2022-10-31T06:58:16.648Z,88.11
2022-10-31T07:00:44.374Z,88.01
2022-10-31T07:03:16.531Z,87.92
2022-10-31T07:05:45.267Z,87.84
2022-10-31T07:08:15.781Z,87.75
2022-10-31T07:10:52.057Z,87.65
2022-10-31T07:13:23.202Z,87.55
2022-10-31T07:15:52.708Z,87.49
2022-10-31T07:18:22.744Z,87.40
2022-10-31T07:20:50.405Z,87.32
2022-10-31T07:23:18.070Z,87.23
2022-10-31T07:25:47.521Z,87.10
2022-10-31T07:28:15.418Z,86.92
2022-10-31T07:30:44.404Z,86.71
2022-10-31T07:33:12.064Z,86.67
2022-10-31T07:35:39.734Z,86.64
2022-10-31T07:38:10.825Z,86.46
2022-10-31T07:40:40.739Z,86.14
2022-10-31T07:43:14.863Z,85.97
2022-10-31T07:45:44.102Z,85.87
2022-10-31T07:48:13.468Z,85.67
2022-10-31T07:50:42.686Z,85.49
2022-10-31T07:53:12.917Z,85.60
2022-10-31T07:55:42.287Z,85.59
2022-10-31T07:58:18.000Z,85.59
2022-10-31T08:00:48.573Z,85.47
2022-10-31T08:03:19.542Z,85.43
2022-10-31T08:05:49.792Z,85.36
2022-10-31T08:08:18.856Z,85.29
2022-10-31T08:10:46.578Z,85.10
2022-10-31T08:13:16.553Z,85.16
2022-10-31T08:15:46.320Z,85.10
2022-10-31T08:18:17.277Z,85.00
2022-10-31T08:20:46.703Z,85.05
2022-10-31T08:23:18.136Z,85.01
2022-10-31T08:25:48.204Z,84.94
2022-10-31T08:28:17.890Z,84.82
2022-10-31T08:30:47.199Z,84.74
2022-10-31T08:33:19.075Z,84.68
2022-10-31T08:35:47.037Z,84.55
2022-10-31T08:38:15.559Z,84.42
2022-10-31T08:40:49.548Z,84.28
2022-10-31T08:43:20.049Z,84.08
2022-10-31T08:45:51.048Z,83.38
2022-10-31T08:48:19.149Z,82.79
2022-10-31T08:50:49.779Z,81.47
2022-10-31T08:53:20.363Z,79.33
2022-10-31T08:55:49.561Z,79.28
2022-10-31T08:58:20.517Z,79.04
2022-10-31T09:00:52.401Z,77.91
2022-10-31T09:03:27.346Z,74.54
2022-10-31T09:06:02.337Z,67.84
2022-10-31T09:08:33.408Z,62.43
2022-10-31T09:11:01.430Z,56.38
2022-10-31T09:13:29.091Z,53.05
2022-10-31T09:16:01.895Z,52.46
2022-10-31T09:18:29.762Z,54.42
2022-10-31T09:21:00.738Z,56.41
2022-10-31T09:23:29.290Z,58.05
2022-10-31T09:26:01.573Z,59.95
2022-10-31T09:28:29.261Z,59.26
2022-10-31T09:30:56.994Z,61.02
2022-10-31T09:33:24.726Z,61.56
2022-10-31T09:35:52.491Z,63.60
2022-10-31T09:38:22.892Z,64.99
2022-10-31T09:41:07.460Z,64.55
2022-10-31T09:44:00.161Z,64.16
2022-10-31T09:46:52.165Z,63.63
2022-10-31T09:49:47.582Z,64.23
2022-10-31T09:52:24.459Z,64.13
2022-10-31T09:55:06.936Z,64.84
2022-10-31T09:57:37.574Z,64.12
2022-10-31T10:00:08.724Z,63.96
2022-10-31T10:02:55.980Z,63.80
2022-10-31T10:05:41.951Z,63.94
2022-10-31T10:08:20.980Z,63.93
2022-10-31T10:10:57.004Z,64.08
2022-10-31T10:14:05.713Z,63.44
2022-10-31T10:17:12.071Z,62.83
2022-10-31T10:19:52.651Z,63.09
2022-10-31T10:22:53.534Z,62.94
2022-10-31T10:25:42.740Z,62.12
2022-10-31T10:28:22.860Z,62.56
2022-10-31T10:30:59.610Z,62.75
2022-10-31T10:33:42.649Z,62.74
2022-10-31T10:36:21.042Z,61.93
2022-10-31T10:39:01.933Z,62.13
2022-10-31T10:41:34.723Z,61.97
2022-10-31T10:44:10.471Z,62.11
2022-10-31T10:47:17.436Z,61.96
2022-10-31T10:49:51.573Z,62.09
2022-10-31T10:52:50.532Z,61.79
2022-10-31T10:55:34.882Z,61.85
2022-10-31T10:58:08.021Z,61.79
2022-10-31T11:00:39.926Z,61.61
2022-10-31T11:03:12.353Z,61.41
2022-10-31T11:05:52.851Z,61.40
2022-10-31T11:08:35.405Z,61.81
2022-10-31T11:11:09.868Z,61.83
2022-10-31T11:13:42.084Z,61.88
2022-10-31T11:16:28.085Z,61.48
2022-10-31T11:19:08.642Z,62.00
2022-10-31T11:21:36.362Z,61.86
2022-10-31T11:24:11.957Z,62.00
2022-10-31T11:26:41.738Z,61.87
2022-10-31T11:29:26.036Z,61.78
2022-10-31T11:31:57.148Z,61.72
2022-10-31T11:34:32.740Z,61.70
2022-10-31T11:37:18.025Z,61.48
2022-10-31T11:39:54.739Z,61.32
2022-10-31T11:42:27.680Z,61.02
2022-10-31T11:44:57.385Z,61.03
2022-10-31T11:47:30.299Z,61.03
2022-10-31T11:50:02.875Z,61.33
2022-10-31T11:52:34.148Z,61.30
2022-10-31T11:55:11.361Z,61.36
2022-10-31T11:57:50.242Z,61.10
2022-10-31T12:00:30.708Z,61.10
2022-10-31T12:03:19.518Z,61.19
2022-10-31T12:05:52.738Z,61.06
2022-10-31T12:08:22.288Z,60.99
2022-10-31T12:11:25.651Z,61.33
2022-10-31T12:14:12.697Z,61.30
2022-10-31T12:17:14.765Z,60.90
2022-10-31T12:20:00.590Z,60.87
2022-10-31T12:22:54.224Z,60.80
2022-10-31T12:25:50.658Z,60.52
2022-10-31T12:28:56.925Z,60.45
2022-10-31T12:31:46.397Z,60.47
2022-10-31T12:34:17.246Z,60.61
2022-10-31T12:37:02.099Z,60.41
2022-10-31T12:40:02.355Z,60.51
2022-10-31T12:43:14.246Z,60.57
2022-10-31T12:46:01.590Z,60.62
2022-10-31T12:48:57.254Z,60.48
2022-10-31T12:51:41.923Z,60.61
2022-10-31T12:54:31.502Z,60.85
2022-10-31T12:57:15.742Z,60.73
2022-10-31T12:59:48.751Z,60.41
2022-10-31T13:02:36.750Z,60.38
2022-10-31T13:05:30.340Z,60.84
2022-10-31T13:08:37.780Z,60.79
2022-10-31T13:11:12.049Z,60.55
2022-10-31T13:14:06.951Z,60.70
2022-10-31T13:16:45.673Z,60.66
2022-10-31T13:19:32.694Z,60.68
2022-10-31T13:22:17.341Z,61.02
2022-10-31T13:25:12.438Z,60.88
2022-10-31T13:28:05.309Z,60.90
2022-10-31T13:30:37.748Z,61.04
2022-10-31T13:33:12.655Z,60.97
2022-10-31T13:35:56.241Z,60.80
2022-10-31T13:38:37.406Z,60.79
2022-10-31T13:41:34.930Z,60.93
2022-10-31T13:44:26.214Z,61.11
2022-10-31T13:46:56.315Z,61.31
2022-10-31T13:49:30.127Z,61.21
2022-10-31T13:52:13.404Z,61.06
2022-10-31T13:54:47.112Z,60.98
2022-10-31T13:57:34.587Z,61.10
2022-10-31T14:00:20.166Z,61.21
2022-10-31T14:02:55.776Z,61.46
2022-10-31T14:05:27.368Z,61.53
2022-10-31T14:07:57.402Z,61.69
2022-10-31T14:10:34.214Z,61.82
2022-10-31T14:13:21.659Z,61.93
2022-10-31T14:16:03.359Z,61.90
2022-10-31T14:18:36.049Z,62.34
2022-10-31T14:21:25.007Z,62.59
2022-10-31T14:23:55.247Z,62.75
2022-10-31T14:26:32.410Z,62.89
2022-10-31T14:29:20.963Z,63.24
2022-10-31T14:32:14.123Z,63.43
2022-10-31T14:34:54.173Z,63.50
2022-10-31T14:37:58.949Z,63.50
2022-10-31T14:40:45.872Z,63.68
2022-10-31T14:43:29.147Z,63.84
2022-10-31T14:46:28.345Z,64.00
2022-10-31T14:49:09.117Z,64.15
2022-10-31T14:51:42.107Z,64.33
2022-10-31T14:54:25.312Z,64.40
2022-10-31T14:57:28.730Z,64.63
2022-10-31T15:00:04.509Z,64.95
2022-10-31T15:03:03.508Z,65.16
2022-10-31T15:05:35.467Z,65.45
2022-10-31T15:08:03.505Z,65.69
2022-10-31T15:10:36.389Z,66.00
2022-10-31T15:13:12.215Z,66.30
2022-10-31T15:15:41.827Z,66.50
2022-10-31T15:18:19.443Z,66.67
2022-10-31T15:20:47.716Z,66.76
2022-10-31T15:23:22.999Z,66.93
2022-10-31T15:25:51.324Z,66.91
2022-10-31T15:28:25.380Z,67.12
2022-10-31T15:31:02.118Z,67.27
2022-10-31T15:33:38.270Z,67.33
2022-10-31T15:36:20.506Z,67.51
2022-10-31T15:38:51.625Z,67.77
2022-10-31T15:41:31.320Z,67.82
2022-10-31T15:44:06.649Z,68.02
2022-10-31T15:46:35.136Z,68.23
2022-10-31T15:49:03.468Z,68.46
2022-10-31T15:51:34.937Z,68.61
2022-10-31T15:54:03.194Z,68.75
2022-10-31T15:56:33.212Z,68.94
2022-10-31T15:59:03.200Z,69.22
2022-10-31T16:01:34.191Z,69.42
2022-10-31T16:04:13.152Z,69.46
2022-10-31T16:06:41.674Z,69.62
2022-10-31T16:09:23.802Z,69.67
2022-10-31T16:11:52.273Z,69.85
2022-10-31T16:14:25.904Z,69.89
2022-10-31T16:16:56.997Z,69.97
2022-10-31T16:19:29.984Z,70.08
2022-10-31T16:22:23.114Z,70.17
2022-10-31T16:25:02.796Z,70.34
2022-10-31T16:27:34.076Z,70.40
2022-10-31T16:30:07.490Z,70.52
2022-10-31T16:32:53.717Z,70.77
2022-10-31T16:35:28.194Z,70.90
2022-10-31T16:37:56.868Z,71.11
2022-10-31T16:40:25.725Z,71.43
2022-10-31T16:42:54.154Z,71.54
2022-10-31T16:45:24.835Z,71.98
2022-10-31T16:47:53.088Z,72.31
2022-10-31T16:50:25.892Z,72.17
2022-10-31T16:53:12.880Z,72.52
2022-10-31T16:55:47.843Z,72.58
2022-10-31T16:58:19.900Z,72.49
2022-10-31T17:00:48.428Z,72.72
2022-10-31T17:03:16.964Z,72.85
2022-10-31T17:05:45.023Z,73.14
2022-10-31T17:08:13.520Z,73.13
2022-10-31T17:10:43.845Z,73.40
2022-10-31T17:13:17.903Z,73.43
2022-10-31T17:15:49.101Z,73.17
2022-10-31T17:18:20.543Z,73.27
2022-10-31T17:20:58.094Z,73.68
2022-10-31T17:23:26.939Z,73.65
2022-10-31T17:25:55.419Z,73.64
2022-10-31T17:28:23.379Z,73.70
2022-10-31T17:30:51.445Z,73.92
2022-10-31T17:33:19.310Z,74.27
2022-10-31T17:35:47.035Z,74.22
2022-10-31T17:38:14.938Z,74.24
2022-10-31T17:40:43.188Z,74.54
2022-10-31T17:43:12.556Z,74.69
2022-10-31T17:45:42.263Z,75.08
2022-10-31T17:48:12.689Z,75.07
2022-10-31T17:50:40.635Z,75.16
2022-10-31T17:53:08.319Z,75.37
2022-10-31T17:55:37.568Z,75.41
2022-10-31T17:58:06.270Z,75.42
2022-10-31T18:00:34.646Z,75.53
2022-10-31T18:03:04.742Z,75.62
2022-10-31T18:05:35.608Z,75.76
2022-10-31T18:08:04.481Z,75.89
2022-10-31T18:10:32.715Z,76.03
2022-10-31T18:13:01.278Z,76.13
2022-10-31T18:15:29.382Z,76.19
2022-10-31T18:17:57.196Z,76.34
2022-10-31T18:20:25.051Z,76.53
2022-10-31T18:22:53.120Z,76.60
2022-10-31T18:25:20.884Z,76.68
2022-10-31T18:27:48.750Z,76.73
2022-10-31T18:30:18.282Z,76.64
2022-10-31T18:32:51.455Z,76.91
2022-10-31T18:35:19.522Z,77.26
2022-10-31T18:37:47.382Z,77.55
2022-10-31T18:40:15.762Z,77.47
2022-10-31T18:42:43.626Z,77.62
2022-10-31T18:45:23.949Z,77.76
2022-10-31T18:47:59.376Z,77.78
2022-10-31T18:50:27.893Z,77.81
2022-10-31T18:52:55.829Z,77.74
2022-10-31T18:55:23.846Z,77.72
2022-10-31T18:57:51.714Z,77.92
2022-10-31T19:00:19.548Z,77.78
2022-10-31T19:02:47.343Z,78.14
2022-10-31T19:05:15.210Z,78.43
2022-10-31T19:07:43.062Z,78.26
2022-10-31T19:10:10.940Z,78.24
2022-10-31T19:12:38.809Z,78.54
2022-10-31T19:15:07.495Z,78.50
2022-10-31T19:17:35.176Z,78.79
2022-10-31T19:20:03.897Z,78.64
2022-10-31T19:22:32.576Z,78.45
2022-10-31T19:25:02.256Z,78.68
2022-10-31T19:27:32.151Z,78.68
2022-10-31T19:30:01.550Z,78.72
2022-10-31T19:32:29.394Z,78.82
2022-10-31T19:34:57.493Z,78.98
2022-10-31T19:37:25.762Z,79.12
2022-10-31T19:39:53.665Z,79.10
2022-10-31T19:42:21.399Z,79.24
2022-10-31T19:44:49.258Z,79.26
2022-10-31T19:47:17.174Z,79.28
2022-10-31T19:49:45.196Z,79.39
2022-10-31T19:52:13.252Z,79.53
2022-10-31T19:54:40.895Z,79.68
2022-10-31T19:57:08.798Z,79.75
2022-10-31T19:59:39.291Z,79.76
2022-10-31T20:02:07.905Z,79.78
2022-10-31T20:04:35.591Z,80.04
2022-10-31T20:07:03.306Z,79.98
2022-10-31T20:09:31.093Z,80.11
2022-10-31T20:11:59.163Z,80.09
2022-10-31T20:14:27.646Z,80.30
2022-10-31T20:16:55.367Z,80.46
2022-10-31T20:19:24.618Z,80.59
2022-10-31T20:21:52.677Z,80.71
2022-10-31T20:24:20.653Z,80.70
2022-10-31T20:26:48.617Z,80.94
2022-10-31T20:29:17.855Z,81.10
2022-10-31T20:31:47.377Z,81.09
2022-10-31T20:34:16.217Z,81.02
2022-10-31T20:36:44.276Z,81.34
2022-10-31T20:39:12.246Z,81.49
2022-10-31T20:41:40.315Z,81.55
2022-10-31T20:44:08.286Z,81.52
2022-10-31T20:46:36.260Z,81.56
2022-10-31T20:49:04.222Z,81.44
2022-10-31T20:51:32.194Z,81.49
2022-10-31T20:54:00.979Z,81.51
2022-10-31T20:56:29.807Z,81.59
2022-10-31T20:58:58.744Z,81.62
2022-10-31T21:01:30.178Z,81.69
2022-10-31T21:03:59.080Z,81.72
2022-10-31T21:06:28.241Z,81.70
2022-10-31T21:08:57.926Z,81.67
2022-10-31T21:11:27.900Z,81.73
2022-10-31T21:13:56.608Z,81.75
2022-10-31T21:16:29.442Z,81.83
2022-10-31T21:18:59.914Z,81.91
2022-10-31T21:21:34.145Z,81.71
2022-10-31T21:24:06.776Z,81.93
2022-10-31T21:26:38.567Z,81.90
2022-10-31T21:29:08.499Z,82.21
2022-10-31T21:31:38.806Z,82.37
2022-10-31T21:34:08.080Z,82.41
2022-10-31T21:36:36.798Z,82.59
2022-10-31T21:39:06.687Z,82.44
2022-10-31T21:41:35.939Z,82.41
2022-10-31T21:44:04.596Z,82.64
2022-10-31T21:46:34.220Z,82.85
2022-10-31T21:49:04.383Z,82.73
2022-10-31T21:51:37.056Z,82.89
2022-10-31T21:54:24.315Z,82.66
2022-10-31T21:56:52.795Z,83.00
2022-10-31T21:59:20.533Z,83.15
2022-10-31T22:01:49.019Z,83.09
2022-10-31T22:04:18.392Z,83.21
2022-10-31T22:06:46.160Z,83.08
2022-10-31T22:09:15.709Z,82.91
2022-10-31T22:11:43.798Z,83.07
2022-10-31T22:14:14.204Z,83.15
2022-10-31T22:16:42.480Z,83.19
2022-10-31T22:19:12.929Z,83.10
2022-10-31T22:21:49.373Z,83.21
2022-10-31T22:24:18.709Z,83.26
2022-10-31T22:26:46.423Z,83.33
2022-10-31T22:29:19.774Z,83.55
2022-10-31T22:31:53.346Z,83.69
2022-10-31T22:34:25.293Z,83.68
2022-10-31T22:36:54.580Z,83.82
2022-10-31T22:39:22.460Z,83.65
2022-10-31T22:41:50.132Z,83.76
2022-10-31T22:44:18.600Z,84.20
2022-10-31T22:46:46.465Z,84.26
2022-10-31T22:49:15.458Z,84.17
2022-10-31T22:51:44.355Z,84.37
2022-10-31T22:54:18.773Z,84.37
2022-10-31T22:56:46.944Z,84.56
2022-10-31T22:59:16.403Z,84.75
2022-10-31T23:01:47.952Z,84.53
2022-10-31T23:04:17.094Z,84.53
2022-10-31T23:06:46.069Z,84.59
2022-10-31T23:09:16.651Z,84.63
2022-10-31T23:11:45.873Z,84.70
2022-10-31T23:14:21.047Z,84.63
2022-10-31T23:16:54.782Z,84.68
2022-10-31T23:19:27.632Z,84.76
2022-10-31T23:22:02.391Z,84.73
2022-10-31T23:24:44.372Z,84.68
2022-10-31T23:27:13.690Z,84.75
2022-10-31T23:29:53.720Z,84.75
2022-10-31T23:32:25.381Z,84.67
2022-10-31T23:34:56.409Z,84.42
2022-10-31T23:37:27.241Z,84.51
2022-10-31T23:39:56.136Z,84.59
2022-10-31T23:42:25.242Z,84.83
2022-10-31T23:44:53.319Z,84.99
2022-10-31T23:47:22.189Z,85.07
2022-10-31T23:49:51.212Z,85.26
2022-10-31T23:52:19.035Z,85.32
2022-10-31T23:54:48.656Z,85.14
2022-10-31T23:57:17.254Z,85.17
2022-10-31T23:59:45.069Z,85.18
